sensor_id;sensor_type;location;lat;lon;timestamp;P1;durP1;ratioP1;P2;durP2;ratioP2
13795;SDS011;40911;51.552;9.874;2023-08-20T00:01:18;11.02;;;7.72;;
13795;SDS011;40911;51.552;9.874;2023-08-20T00:03:43;10.02;;;7.82;;
13795;SDS011;40911;51.552;9.874;2023-08-20T00:06:06;10.40;;;7.20;;
13795;SDS011;40911;51.552;9.874;2023-08-20T00:08:30;10.90;;;7.43;;
13795;SDS011;40911;51.552;9.874;2023-08-20T00:10:52;10.32;;;7.30;;
13795;SDS011;40911;51.552;9.874;2023-08-20T00:13:13;8.15;;;6.78;;
13795;SDS011;40911;51.552;9.874;2023-08-20T00:15:35;10.55;;;6.95;;
13795;SDS011;40911;51.552;9.874;2023-08-20T00:17:58;10.23;;;7.40;;
13795;SDS011;40911;51.552;9.874;2023-08-20T00:20:20;9.65;;;7.40;;
13795;SDS011;40911;51.552;9.874;2023-08-20T00:22:42;11.68;;;7.80;;
13795;SDS011;40911;51.552;9.874;2023-08-20T00:25:07;11.07;;;7.15;;
13795;SDS011;40911;51.552;9.874;2023-08-20T00:27:30;13.38;;;6.95;;
13795;SDS011;40911;51.552;9.874;2023-08-20T00:29:51;8.77;;;7.03;;
13795;SDS011;40911;51.552;9.874;2023-08-20T00:32:14;10.20;;;7.00;;
13795;SDS011;40911;51.552;9.874;2023-08-20T00:34:36;10.90;;;7.82;;
13795;SDS011;40911;51.552;9.874;2023-08-20T00:36:57;8.75;;;7.03;;
13795;SDS011;40911;51.552;9.874;2023-08-20T00:39:19;10.60;;;7.18;;
13795;SDS011;40911;51.552;9.874;2023-08-20T00:41:42;9.10;;;6.93;;
13795;SDS011;40911;51.552;9.874;2023-08-20T00:44:05;9.52;;;7.40;;
13795;SDS011;40911;51.552;9.874;2023-08-20T00:46:26;10.82;;;7.43;;
13795;SDS011;40911;51.552;9.874;2023-08-20T00:48:48;11.45;;;7.40;;
13795;SDS011;40911;51.552;9.874;2023-08-20T00:51:10;9.00;;;7.43;;
13795;SDS011;40911;51.552;9.874;2023-08-20T00:53:32;11.48;;;7.57;;
13795;SDS011;40911;51.552;9.874;2023-08-20T00:55:54;10.23;;;7.15;;
13795;SDS011;40911;51.552;9.874;2023-08-20T00:58:17;10.82;;;7.32;;
13795;SDS011;40911;51.552;9.874;2023-08-20T01:00:40;8.80;;;7.95;;
13795;SDS011;40911;51.552;9.874;2023-08-20T01:03:02;15.95;;;7.55;;
13795;SDS011;40911;51.552;9.874;2023-08-20T01:05:24;8.35;;;7.10;;
13795;SDS011;40911;51.552;9.874;2023-08-20T01:07:48;10.75;;;7.15;;
13795;SDS011;40911;51.552;9.874;2023-08-20T01:10:23;9.93;;;7.15;;
13795;SDS011;40911;51.552;9.874;2023-08-20T01:12:50;13.98;;;7.55;;
13795;SDS011;40911;51.552;9.874;2023-08-20T01:15:14;11.48;;;7.95;;
13795;SDS011;40911;51.552;9.874;2023-08-20T01:17:36;13.30;;;8.35;;
13795;SDS011;40911;51.552;9.874;2023-08-20T01:19:58;14.95;;;7.90;;
13795;SDS011;40911;51.552;9.874;2023-08-20T01:22:23;10.15;;;7.57;;
13795;SDS011;40911;51.552;9.874;2023-08-20T01:25:11;10.95;;;8.40;;
13795;SDS011;40911;51.552;9.874;2023-08-20T01:27:42;11.25;;;7.40;;
13795;SDS011;40911;51.552;9.874;2023-08-20T01:30:13;12.68;;;8.10;;
13795;SDS011;40911;51.552;9.874;2023-08-20T01:32:36;14.82;;;9.50;;
13795;SDS011;40911;51.552;9.874;2023-08-20T01:35:02;12.82;;;7.82;;
13795;SDS011;40911;51.552;9.874;2023-08-20T01:37:24;8.82;;;7.93;;
13795;SDS011;40911;51.552;9.874;2023-08-20T01:39:46;11.88;;;8.13;;
13795;SDS011;40911;51.552;9.874;2023-08-20T01:42:07;10.35;;;8.45;;
13795;SDS011;40911;51.552;9.874;2023-08-20T01:44:29;9.77;;;8.20;;
13795;SDS011;40911;51.552;9.874;2023-08-20T01:46:52;11.27;;;7.68;;
13795;SDS011;40911;51.552;9.874;2023-08-20T01:49:14;11.32;;;8.02;;
13795;SDS011;40911;51.552;9.874;2023-08-20T01:51:36;10.25;;;7.43;;
13795;SDS011;40911;51.552;9.874;2023-08-20T01:53:58;11.23;;;8.00;;
13795;SDS011;40911;51.552;9.874;2023-08-20T01:56:19;12.35;;;8.48;;
13795;SDS011;40911;51.552;9.874;2023-08-20T01:58:41;12.93;;;8.13;;
13795;SDS011;40911;51.552;9.874;2023-08-20T02:01:03;11.85;;;7.80;;
13795;SDS011;40911;51.552;9.874;2023-08-20T02:03:26;10.60;;;8.00;;
13795;SDS011;40911;51.552;9.874;2023-08-20T02:05:48;13.27;;;8.20;;
13795;SDS011;40911;51.552;9.874;2023-08-20T02:08:10;10.52;;;7.75;;
13795;SDS011;40911;51.552;9.874;2023-08-20T02:10:32;10.90;;;7.78;;
13795;SDS011;40911;51.552;9.874;2023-08-20T02:12:54;11.05;;;7.90;;
13795;SDS011;40911;51.552;9.874;2023-08-20T02:15:15;10.52;;;8.15;;
13795;SDS011;40911;51.552;9.874;2023-08-20T02:17:37;11.43;;;8.07;;
13795;SDS011;40911;51.552;9.874;2023-08-20T02:20:01;10.20;;;7.82;;
13795;SDS011;40911;51.552;9.874;2023-08-20T02:22:24;10.38;;;7.72;;
13795;SDS011;40911;51.552;9.874;2023-08-20T02:24:49;9.52;;;7.50;;
13795;SDS011;40911;51.552;9.874;2023-08-20T02:27:11;11.63;;;7.95;;
13795;SDS011;40911;51.552;9.874;2023-08-20T02:29:33;11.32;;;7.65;;
13795;SDS011;40911;51.552;9.874;2023-08-20T02:31:54;10.70;;;7.30;;
13795;SDS011;40911;51.552;9.874;2023-08-20T02:34:16;10.27;;;7.75;;
13795;SDS011;40911;51.552;9.874;2023-08-20T02:36:39;10.90;;;7.95;;
13795;SDS011;40911;51.552;9.874;2023-08-20T02:39:01;10.88;;;7.40;;
13795;SDS011;40911;51.552;9.874;2023-08-20T02:41:24;12.23;;;7.97;;
13795;SDS011;40911;51.552;9.874;2023-08-20T02:43:46;8.73;;;7.63;;
13795;SDS011;40911;51.552;9.874;2023-08-20T02:46:08;12.70;;;8.57;;
13795;SDS011;40911;51.552;9.874;2023-08-20T02:48:30;13.73;;;8.60;;
13795;SDS011;40911;51.552;9.874;2023-08-20T02:50:52;13.77;;;8.40;;
13795;SDS011;40911;51.552;9.874;2023-08-20T02:53:15;11.65;;;7.90;;
13795;SDS011;40911;51.552;9.874;2023-08-20T02:55:37;11.27;;;8.57;;
13795;SDS011;40911;51.552;9.874;2023-08-20T02:57:59;9.85;;;8.18;;
13795;SDS011;40911;51.552;9.874;2023-08-20T03:00:21;15.75;;;9.00;;
13795;SDS011;40911;51.552;9.874;2023-08-20T03:02:43;10.50;;;8.55;;
13795;SDS011;40911;51.552;9.874;2023-08-20T03:05:05;12.73;;;9.77;;
13795;SDS011;40911;51.552;9.874;2023-08-20T03:07:27;15.10;;;9.85;;
13795;SDS011;40911;51.552;9.874;2023-08-20T03:09:50;11.70;;;9.43;;
13795;SDS011;40911;51.552;9.874;2023-08-20T03:12:12;13.52;;;10.75;;
13795;SDS011;40911;51.552;9.874;2023-08-20T03:14:34;15.48;;;11.57;;
13795;SDS011;40911;51.552;9.874;2023-08-20T03:16:55;12.07;;;10.50;;
13795;SDS011;40911;51.552;9.874;2023-08-20T03:19:17;15.63;;;10.52;;
13795;SDS011;40911;51.552;9.874;2023-08-20T03:21:39;16.77;;;10.63;;
13795;SDS011;40911;51.552;9.874;2023-08-20T03:24:01;15.93;;;10.40;;
13795;SDS011;40911;51.552;9.874;2023-08-20T03:26:24;13.35;;;11.07;;
13795;SDS011;40911;51.552;9.874;2023-08-20T03:28:46;12.70;;;11.20;;
13795;SDS011;40911;51.552;9.874;2023-08-20T03:31:08;14.93;;;11.98;;
13795;SDS011;40911;51.552;9.874;2023-08-20T03:33:30;16.75;;;11.30;;
13795;SDS011;40911;51.552;9.874;2023-08-20T03:35:51;17.23;;;11.63;;
13795;SDS011;40911;51.552;9.874;2023-08-20T03:38:13;16.27;;;11.32;;
13795;SDS011;40911;51.552;9.874;2023-08-20T03:40:35;14.85;;;11.18;;
13795;SDS011;40911;51.552;9.874;2023-08-20T03:42:58;17.95;;;12.13;;
13795;SDS011;40911;51.552;9.874;2023-08-20T03:45:20;17.00;;;12.80;;
13795;SDS011;40911;51.552;9.874;2023-08-20T03:47:42;19.13;;;12.30;;
13795;SDS011;40911;51.552;9.874;2023-08-20T03:50:07;17.13;;;12.40;;
13795;SDS011;40911;51.552;9.874;2023-08-20T03:52:29;15.40;;;12.35;;
13795;SDS011;40911;51.552;9.874;2023-08-20T03:54:51;18.23;;;12.25;;
13795;SDS011;40911;51.552;9.874;2023-08-20T03:57:12;19.77;;;12.10;;
13795;SDS011;40911;51.552;9.874;2023-08-20T03:59:36;15.30;;;12.07;;
13795;SDS011;40911;51.552;9.874;2023-08-20T04:01:58;17.40;;;11.57;;
13795;SDS011;40911;51.552;9.874;2023-08-20T04:04:19;17.42;;;11.98;;
13795;SDS011;40911;51.552;9.874;2023-08-20T04:06:41;19.42;;;12.52;;
13795;SDS011;40911;51.552;9.874;2023-08-20T04:09:03;18.25;;;12.50;;
13795;SDS011;40911;51.552;9.874;2023-08-20T04:11:25;20.48;;;13.60;;
13795;SDS011;40911;51.552;9.874;2023-08-20T04:13:47;16.17;;;12.75;;
13795;SDS011;40911;51.552;9.874;2023-08-20T04:16:10;16.63;;;13.05;;
13795;SDS011;40911;51.552;9.874;2023-08-20T04:18:33;17.17;;;12.88;;
13795;SDS011;40911;51.552;9.874;2023-08-20T04:20:55;16.00;;;12.73;;
13795;SDS011;40911;51.552;9.874;2023-08-20T04:23:17;19.67;;;13.30;;
13795;SDS011;40911;51.552;9.874;2023-08-20T04:25:39;17.23;;;13.25;;
13795;SDS011;40911;51.552;9.874;2023-08-20T04:28:01;18.40;;;14.77;;
13795;SDS011;40911;51.552;9.874;2023-08-20T04:30:23;16.83;;;12.88;;
13795;SDS011;40911;51.552;9.874;2023-08-20T04:32:46;17.40;;;14.23;;
13795;SDS011;40911;51.552;9.874;2023-08-20T04:35:08;22.48;;;13.73;;
13795;SDS011;40911;51.552;9.874;2023-08-20T04:37:31;18.48;;;14.90;;
13795;SDS011;40911;51.552;9.874;2023-08-20T04:39:53;22.63;;;15.07;;
13795;SDS011;40911;51.552;9.874;2023-08-20T04:42:15;22.20;;;15.88;;
13795;SDS011;40911;51.552;9.874;2023-08-20T04:44:36;21.90;;;14.70;;
13795;SDS011;40911;51.552;9.874;2023-08-20T04:46:59;22.48;;;15.93;;
13795;SDS011;40911;51.552;9.874;2023-08-20T04:49:23;29.08;;;16.30;;
13795;SDS011;40911;51.552;9.874;2023-08-20T04:51:48;22.80;;;16.23;;
13795;SDS011;40911;51.552;9.874;2023-08-20T04:54:10;21.70;;;16.42;;
13795;SDS011;40911;51.552;9.874;2023-08-20T04:56:31;24.63;;;16.60;;
13795;SDS011;40911;51.552;9.874;2023-08-20T04:58:53;26.17;;;16.05;;
13795;SDS011;40911;51.552;9.874;2023-08-20T05:01:15;25.05;;;16.85;;
13795;SDS011;40911;51.552;9.874;2023-08-20T05:03:37;25.17;;;16.90;;
13795;SDS011;40911;51.552;9.874;2023-08-20T05:06:00;22.60;;;16.40;;
13795;SDS011;40911;51.552;9.874;2023-08-20T05:08:22;26.35;;;17.27;;
13795;SDS011;40911;51.552;9.874;2023-08-20T05:10:44;25.17;;;17.83;;
13795;SDS011;40911;51.552;9.874;2023-08-20T05:13:08;25.77;;;17.88;;
13795;SDS011;40911;51.552;9.874;2023-08-20T05:15:30;27.45;;;18.13;;
13795;SDS011;40911;51.552;9.874;2023-08-20T05:17:52;26.95;;;17.88;;
13795;SDS011;40911;51.552;9.874;2023-08-20T05:20:14;28.25;;;19.48;;
13795;SDS011;40911;51.552;9.874;2023-08-20T05:22:37;24.75;;;18.50;;
13795;SDS011;40911;51.552;9.874;2023-08-20T05:24:59;30.10;;;18.83;;
13795;SDS011;40911;51.552;9.874;2023-08-20T05:27:21;26.55;;;19.15;;
13795;SDS011;40911;51.552;9.874;2023-08-20T05:29:42;30.00;;;20.00;;
13795;SDS011;40911;51.552;9.874;2023-08-20T05:32:05;25.75;;;18.55;;
13795;SDS011;40911;51.552;9.874;2023-08-20T05:34:27;27.52;;;20.33;;
13795;SDS011;40911;51.552;9.874;2023-08-20T05:36:48;30.38;;;19.58;;
13795;SDS011;40911;51.552;9.874;2023-08-20T05:39:12;29.23;;;19.13;;
13795;SDS011;40911;51.552;9.874;2023-08-20T05:41:33;30.13;;;20.73;;
13795;SDS011;40911;51.552;9.874;2023-08-20T05:43:55;25.33;;;18.88;;
13795;SDS011;40911;51.552;9.874;2023-08-20T05:46:17;32.67;;;21.50;;
13795;SDS011;40911;51.552;9.874;2023-08-20T05:48:39;29.08;;;20.98;;
13795;SDS011;40911;51.552;9.874;2023-08-20T05:51:00;27.73;;;20.50;;
13795;SDS011;40911;51.552;9.874;2023-08-20T05:53:22;30.67;;;21.38;;
13795;SDS011;40911;51.552;9.874;2023-08-20T05:55:45;26.60;;;19.25;;
13795;SDS011;40911;51.552;9.874;2023-08-20T05:58:07;30.85;;;19.00;;
13795;SDS011;40911;51.552;9.874;2023-08-20T06:00:29;33.33;;;22.17;;
13795;SDS011;40911;51.552;9.874;2023-08-20T06:02:50;29.60;;;19.83;;
13795;SDS011;40911;51.552;9.874;2023-08-20T06:05:12;30.95;;;19.92;;
13795;SDS011;40911;51.552;9.874;2023-08-20T06:07:34;26.80;;;19.70;;
13795;SDS011;40911;51.552;9.874;2023-08-20T06:09:56;25.63;;;18.63;;
13795;SDS011;40911;51.552;9.874;2023-08-20T06:12:19;23.35;;;18.17;;
13795;SDS011;40911;51.552;9.874;2023-08-20T06:14:41;23.92;;;18.08;;
13795;SDS011;40911;51.552;9.874;2023-08-20T06:17:02;23.30;;;17.13;;
13795;SDS011;40911;51.552;9.874;2023-08-20T06:19:24;25.80;;;16.88;;
13795;SDS011;40911;51.552;9.874;2023-08-20T06:21:47;25.33;;;16.98;;
13795;SDS011;40911;51.552;9.874;2023-08-20T06:24:09;21.50;;;16.10;;
13795;SDS011;40911;51.552;9.874;2023-08-20T06:26:30;23.05;;;15.85;;
13795;SDS011;40911;51.552;9.874;2023-08-20T06:28:54;24.15;;;15.90;;
13795;SDS011;40911;51.552;9.874;2023-08-20T06:31:15;20.92;;;15.27;;
13795;SDS011;40911;51.552;9.874;2023-08-20T06:33:37;22.20;;;14.45;;
13795;SDS011;40911;51.552;9.874;2023-08-20T06:35:59;20.50;;;15.75;;
13795;SDS011;40911;51.552;9.874;2023-08-20T06:38:21;20.35;;;15.68;;
13795;SDS011;40911;51.552;9.874;2023-08-20T06:40:42;20.42;;;15.38;;
13795;SDS011;40911;51.552;9.874;2023-08-20T06:43:04;20.73;;;15.15;;
13795;SDS011;40911;51.552;9.874;2023-08-20T06:45:27;23.15;;;15.18;;
13795;SDS011;40911;51.552;9.874;2023-08-20T06:47:49;20.42;;;13.95;;
13795;SDS011;40911;51.552;9.874;2023-08-20T06:50:11;18.67;;;14.25;;
13795;SDS011;40911;51.552;9.874;2023-08-20T06:52:33;20.40;;;13.65;;
13795;SDS011;40911;51.552;9.874;2023-08-20T06:54:54;22.33;;;14.32;;
13795;SDS011;40911;51.552;9.874;2023-08-20T06:57:16;20.15;;;13.85;;
13795;SDS011;40911;51.552;9.874;2023-08-20T06:59:38;20.98;;;13.27;;
13795;SDS011;40911;51.552;9.874;2023-08-20T07:02:02;17.40;;;12.43;;
13795;SDS011;40911;51.552;9.874;2023-08-20T07:04:24;18.45;;;13.48;;
13795;SDS011;40911;51.552;9.874;2023-08-20T07:06:46;19.42;;;13.05;;
13795;SDS011;40911;51.552;9.874;2023-08-20T07:09:07;19.35;;;14.85;;
13795;SDS011;40911;51.552;9.874;2023-08-20T07:11:30;18.85;;;13.90;;
13795;SDS011;40911;51.552;9.874;2023-08-20T07:13:52;18.33;;;14.05;;
13795;SDS011;40911;51.552;9.874;2023-08-20T07:16:13;16.65;;;13.60;;
13795;SDS011;40911;51.552;9.874;2023-08-20T07:18:37;15.73;;;12.73;;
13795;SDS011;40911;51.552;9.874;2023-08-20T07:20:58;20.23;;;13.93;;
13795;SDS011;40911;51.552;9.874;2023-08-20T07:23:20;17.13;;;12.27;;
13795;SDS011;40911;51.552;9.874;2023-08-20T07:25:42;20.10;;;13.70;;
13795;SDS011;40911;51.552;9.874;2023-08-20T07:28:05;15.68;;;12.50;;
13795;SDS011;40911;51.552;9.874;2023-08-20T07:30:27;15.73;;;12.30;;
13795;SDS011;40911;51.552;9.874;2023-08-20T07:32:49;14.93;;;12.85;;
13795;SDS011;40911;51.552;9.874;2023-08-20T07:35:12;14.18;;;11.68;;
13795;SDS011;40911;51.552;9.874;2023-08-20T07:37:34;14.75;;;11.82;;
13795;SDS011;40911;51.552;9.874;2023-08-20T07:39:56;16.15;;;12.70;;
13795;SDS011;40911;51.552;9.874;2023-08-20T07:42:18;17.33;;;13.02;;
13795;SDS011;40911;51.552;9.874;2023-08-20T07:44:40;20.35;;;13.35;;
13795;SDS011;40911;51.552;9.874;2023-08-20T07:47:01;18.98;;;13.43;;
13795;SDS011;40911;51.552;9.874;2023-08-20T07:49:23;15.77;;;11.27;;
13795;SDS011;40911;51.552;9.874;2023-08-20T07:51:46;15.15;;;11.95;;
13795;SDS011;40911;51.552;9.874;2023-08-20T07:54:08;14.63;;;12.10;;
13795;SDS011;40911;51.552;9.874;2023-08-20T07:56:30;15.27;;;11.90;;
13795;SDS011;40911;51.552;9.874;2023-08-20T07:58:52;17.27;;;12.38;;
13795;SDS011;40911;51.552;9.874;2023-08-20T08:01:13;12.90;;;9.70;;
13795;SDS011;40911;51.552;9.874;2023-08-20T08:03:36;12.55;;;10.43;;
13795;SDS011;40911;51.552;9.874;2023-08-20T08:05:58;13.68;;;11.00;;
13795;SDS011;40911;51.552;9.874;2023-08-20T08:08:22;15.00;;;10.48;;
13795;SDS011;40911;51.552;9.874;2023-08-20T08:10:44;15.10;;;11.07;;
13795;SDS011;40911;51.552;9.874;2023-08-20T08:13:07;13.23;;;10.70;;
13795;SDS011;40911;51.552;9.874;2023-08-20T08:15:28;13.77;;;10.82;;
13795;SDS011;40911;51.552;9.874;2023-08-20T08:17:50;13.25;;;11.05;;
13795;SDS011;40911;51.552;9.874;2023-08-20T08:20:12;15.93;;;10.90;;
13795;SDS011;40911;51.552;9.874;2023-08-20T08:22:34;12.30;;;10.43;;
13795;SDS011;40911;51.552;9.874;2023-08-20T08:24:57;13.45;;;10.05;;
13795;SDS011;40911;51.552;9.874;2023-08-20T08:27:19;15.05;;;11.30;;
13795;SDS011;40911;51.552;9.874;2023-08-20T08:29:40;10.82;;;9.30;;
13795;SDS011;40911;51.552;9.874;2023-08-20T08:32:02;11.85;;;9.13;;
13795;SDS011;40911;51.552;9.874;2023-08-20T08:34:24;12.07;;;8.95;;
13795;SDS011;40911;51.552;9.874;2023-08-20T08:36:46;9.90;;;8.50;;
13795;SDS011;40911;51.552;9.874;2023-08-20T08:39:08;10.52;;;9.38;;
13795;SDS011;40911;51.552;9.874;2023-08-20T08:41:31;10.52;;;9.10;;
13795;SDS011;40911;51.552;9.874;2023-08-20T08:43:55;12.23;;;8.63;;
13795;SDS011;40911;51.552;9.874;2023-08-20T08:46:17;12.57;;;10.20;;
13795;SDS011;40911;51.552;9.874;2023-08-20T08:48:40;10.70;;;8.43;;
13795;SDS011;40911;51.552;9.874;2023-08-20T08:51:02;12.00;;;9.02;;
13795;SDS011;40911;51.552;9.874;2023-08-20T08:53:24;12.50;;;9.77;;
13795;SDS011;40911;51.552;9.874;2023-08-20T08:55:46;11.77;;;9.57;;
13795;SDS011;40911;51.552;9.874;2023-08-20T08:58:09;11.00;;;9.15;;
13795;SDS011;40911;51.552;9.874;2023-08-20T09:00:31;11.75;;;8.50;;
13795;SDS011;40911;51.552;9.874;2023-08-20T09:02:53;12.18;;;9.40;;
13795;SDS011;40911;51.552;9.874;2023-08-20T09:05:15;9.60;;;8.65;;
13795;SDS011;40911;51.552;9.874;2023-08-20T09:07:38;10.25;;;8.70;;
13795;SDS011;40911;51.552;9.874;2023-08-20T09:10:04;8.85;;;7.78;;
13795;SDS011;40911;51.552;9.874;2023-08-20T09:12:26;8.93;;;7.18;;
13795;SDS011;40911;51.552;9.874;2023-08-20T09:14:50;8.27;;;7.35;;
13795;SDS011;40911;51.552;9.874;2023-08-20T09:17:15;10.40;;;8.05;;
13795;SDS011;40911;51.552;9.874;2023-08-20T09:19:37;9.80;;;7.70;;
13795;SDS011;40911;51.552;9.874;2023-08-20T09:21:59;9.10;;;7.93;;
13795;SDS011;40911;51.552;9.874;2023-08-20T09:24:26;8.90;;;8.00;;
13795;SDS011;40911;51.552;9.874;2023-08-20T09:26:56;9.52;;;8.00;;
13795;SDS011;40911;51.552;9.874;2023-08-20T09:29:19;9.70;;;7.35;;
13795;SDS011;40911;51.552;9.874;2023-08-20T09:31:42;8.63;;;7.68;;
13795;SDS011;40911;51.552;9.874;2023-08-20T09:34:05;8.45;;;7.55;;
13795;SDS011;40911;51.552;9.874;2023-08-20T09:36:29;9.65;;;7.82;;
13795;SDS011;40911;51.552;9.874;2023-08-20T09:38:53;8.88;;;7.07;;
13795;SDS011;40911;51.552;9.874;2023-08-20T09:41:15;8.15;;;6.90;;
13795;SDS011;40911;51.552;9.874;2023-08-20T09:43:37;9.73;;;7.78;;
13795;SDS011;40911;51.552;9.874;2023-08-20T09:46:00;9.57;;;7.32;;
13795;SDS011;40911;51.552;9.874;2023-08-20T09:48:26;7.65;;;6.72;;
13795;SDS011;40911;51.552;9.874;2023-08-20T09:50:51;8.75;;;6.10;;
13795;SDS011;40911;51.552;9.874;2023-08-20T09:53:19;8.02;;;6.70;;
13795;SDS011;40911;51.552;9.874;2023-08-20T09:55:47;7.35;;;6.10;;
13795;SDS011;40911;51.552;9.874;2023-08-20T09:58:12;7.72;;;6.35;;
13795;SDS011;40911;51.552;9.874;2023-08-20T10:00:35;7.82;;;6.25;;
13795;SDS011;40911;51.552;9.874;2023-08-20T10:02:56;6.85;;;5.65;;
13795;SDS011;40911;51.552;9.874;2023-08-20T10:05:21;7.03;;;6.22;;
13795;SDS011;40911;51.552;9.874;2023-08-20T10:07:44;8.23;;;6.70;;
13795;SDS011;40911;51.552;9.874;2023-08-20T10:10:07;10.20;;;6.00;;
13795;SDS011;40911;51.552;9.874;2023-08-20T10:12:32;10.20;;;7.00;;
13795;SDS011;40911;51.552;9.874;2023-08-20T10:14:56;6.28;;;5.57;;
13795;SDS011;40911;51.552;9.874;2023-08-20T10:17:18;6.95;;;5.68;;
13795;SDS011;40911;51.552;9.874;2023-08-20T10:19:40;8.02;;;5.93;;
13795;SDS011;40911;51.552;9.874;2023-08-20T10:22:04;8.18;;;5.78;;
13795;SDS011;40911;51.552;9.874;2023-08-20T10:24:27;6.28;;;5.65;;
13795;SDS011;40911;51.552;9.874;2023-08-20T10:29:37;8.70;;;5.93;;
13795;SDS011;40911;51.552;9.874;2023-08-20T10:32:00;7.22;;;6.53;;
13795;SDS011;40911;51.552;9.874;2023-08-20T10:34:31;6.90;;;6.20;;
13795;SDS011;40911;51.552;9.874;2023-08-20T10:36:54;6.70;;;6.03;;
13795;SDS011;40911;51.552;9.874;2023-08-20T10:39:21;6.70;;;6.00;;
13795;SDS011;40911;51.552;9.874;2023-08-20T10:41:43;6.90;;;6.07;;
13795;SDS011;40911;51.552;9.874;2023-08-20T10:44:05;7.63;;;6.10;;
13795;SDS011;40911;51.552;9.874;2023-08-20T10:46:27;6.88;;;5.72;;
13795;SDS011;40911;51.552;9.874;2023-08-20T10:48:50;7.35;;;5.68;;
13795;SDS011;40911;51.552;9.874;2023-08-20T10:51:13;7.32;;;6.38;;
13795;SDS011;40911;51.552;9.874;2023-08-20T10:53:36;7.65;;;5.82;;
13795;SDS011;40911;51.552;9.874;2023-08-20T10:56:08;6.88;;;5.75;;
13795;SDS011;40911;51.552;9.874;2023-08-20T10:58:34;6.50;;;5.90;;
13795;SDS011;40911;51.552;9.874;2023-08-20T11:03:36;5.80;;;5.07;;
13795;SDS011;40911;51.552;9.874;2023-08-20T11:05:58;6.00;;;5.40;;
13795;SDS011;40911;51.552;9.874;2023-08-20T11:08:20;5.70;;;5.18;;
13795;SDS011;40911;51.552;9.874;2023-08-20T11:10:42;6.20;;;5.43;;
13795;SDS011;40911;51.552;9.874;2023-08-20T11:13:05;5.68;;;5.03;;
13795;SDS011;40911;51.552;9.874;2023-08-20T11:15:27;5.95;;;5.43;;
13795;SDS011;40911;51.552;9.874;2023-08-20T11:17:49;6.93;;;5.60;;
13795;SDS011;40911;51.552;9.874;2023-08-20T11:20:11;8.45;;;5.57;;
13795;SDS011;40911;51.552;9.874;2023-08-20T11:22:36;8.10;;;5.80;;
13795;SDS011;40911;51.552;9.874;2023-08-20T11:24:58;5.47;;;4.88;;
13795;SDS011;40911;51.552;9.874;2023-08-20T11:27:26;5.60;;;4.95;;
13795;SDS011;40911;51.552;9.874;2023-08-20T11:29:49;7.10;;;5.20;;
13795;SDS011;40911;51.552;9.874;2023-08-20T11:32:12;6.63;;;5.60;;
13795;SDS011;40911;51.552;9.874;2023-08-20T11:34:35;5.50;;;5.00;;
13795;SDS011;40911;51.552;9.874;2023-08-20T11:36:58;5.13;;;4.63;;
13795;SDS011;40911;51.552;9.874;2023-08-20T11:39:19;5.60;;;5.03;;
13795;SDS011;40911;51.552;9.874;2023-08-20T11:41:41;8.57;;;4.63;;
13795;SDS011;40911;51.552;9.874;2023-08-20T11:44:03;5.30;;;4.80;;
13795;SDS011;40911;51.552;9.874;2023-08-20T11:46:26;4.38;;;3.78;;
13795;SDS011;40911;51.552;9.874;2023-08-20T11:49:01;5.40;;;5.00;;
13795;SDS011;40911;51.552;9.874;2023-08-20T11:51:24;6.72;;;5.00;;
13795;SDS011;40911;51.552;9.874;2023-08-20T11:53:46;5.32;;;4.82;;
13795;SDS011;40911;51.552;9.874;2023-08-20T11:56:12;5.93;;;4.95;;
13795;SDS011;40911;51.552;9.874;2023-08-20T11:58:34;3.42;;;3.13;;
13795;SDS011;40911;51.552;9.874;2023-08-20T12:00:56;4.90;;;3.85;;
13795;SDS011;40911;51.552;9.874;2023-08-20T12:03:20;4.80;;;4.20;;
13795;SDS011;40911;51.552;9.874;2023-08-20T12:05:44;5.63;;;3.90;;
13795;SDS011;40911;51.552;9.874;2023-08-20T12:08:05;4.25;;;3.70;;
13795;SDS011;40911;51.552;9.874;2023-08-20T12:10:28;5.50;;;4.00;;
13795;SDS011;40911;51.552;9.874;2023-08-20T12:12:53;5.05;;;4.25;;
13795;SDS011;40911;51.552;9.874;2023-08-20T12:15:15;7.28;;;3.88;;
13795;SDS011;40911;51.552;9.874;2023-08-20T12:17:38;6.90;;;4.47;;
13795;SDS011;40911;51.552;9.874;2023-08-20T12:20:01;5.72;;;4.13;;
13795;SDS011;40911;51.552;9.874;2023-08-20T12:22:30;4.45;;;4.03;;
13795;SDS011;40911;51.552;9.874;2023-08-20T12:24:54;4.65;;;4.25;;
13795;SDS011;40911;51.552;9.874;2023-08-20T12:27:16;4.82;;;3.80;;
13795;SDS011;40911;51.552;9.874;2023-08-20T12:29:41;4.57;;;4.18;;
13795;SDS011;40911;51.552;9.874;2023-08-20T12:32:04;6.18;;;4.00;;
13795;SDS011;40911;51.552;9.874;2023-08-20T12:34:27;4.93;;;3.70;;
13795;SDS011;40911;51.552;9.874;2023-08-20T12:36:50;4.82;;;4.32;;
13795;SDS011;40911;51.552;9.874;2023-08-20T12:39:12;5.20;;;4.18;;
13795;SDS011;40911;51.552;9.874;2023-08-20T12:41:34;5.18;;;4.13;;
13795;SDS011;40911;51.552;9.874;2023-08-20T12:43:56;3.97;;;3.67;;
13795;SDS011;40911;51.552;9.874;2023-08-20T12:46:18;4.60;;;3.53;;
13795;SDS011;40911;51.552;9.874;2023-08-20T12:48:40;4.60;;;4.13;;
13795;SDS011;40911;51.552;9.874;2023-08-20T12:51:02;6.00;;;3.72;;
13795;SDS011;40911;51.552;9.874;2023-08-20T12:53:25;4.60;;;4.05;;
13795;SDS011;40911;51.552;9.874;2023-08-20T12:55:47;4.45;;;4.10;;
13795;SDS011;40911;51.552;9.874;2023-08-20T12:58:09;5.50;;;4.30;;
13795;SDS011;40911;51.552;9.874;2023-08-20T13:00:31;5.05;;;4.53;;
13795;SDS011;40911;51.552;9.874;2023-08-20T13:02:53;6.85;;;4.75;;
13795;SDS011;40911;51.552;9.874;2023-08-20T13:05:16;5.75;;;4.25;;
13795;SDS011;40911;51.552;9.874;2023-08-20T13:07:38;5.30;;;4.55;;
13795;SDS011;40911;51.552;9.874;2023-08-20T13:10:02;5.25;;;4.22;;
13795;SDS011;40911;51.552;9.874;2023-08-20T13:12:25;5.78;;;4.20;;
13795;SDS011;40911;51.552;9.874;2023-08-20T13:14:48;5.30;;;4.15;;
13795;SDS011;40911;51.552;9.874;2023-08-20T13:17:11;5.93;;;4.53;;
13795;SDS011;40911;51.552;9.874;2023-08-20T13:19:33;5.80;;;4.35;;
13795;SDS011;40911;51.552;9.874;2023-08-20T13:21:54;6.32;;;4.50;;
13795;SDS011;40911;51.552;9.874;2023-08-20T13:24:16;4.95;;;4.28;;
13795;SDS011;40911;51.552;9.874;2023-08-20T13:26:39;8.77;;;4.72;;
13795;SDS011;40911;51.552;9.874;2023-08-20T13:29:01;4.35;;;3.95;;
13795;SDS011;40911;51.552;9.874;2023-08-20T13:31:23;5.18;;;4.68;;
13795;SDS011;40911;51.552;9.874;2023-08-20T13:33:45;4.90;;;4.10;;
13795;SDS011;40911;51.552;9.874;2023-08-20T13:36:07;6.82;;;4.53;;
13795;SDS011;40911;51.552;9.874;2023-08-20T13:38:29;6.97;;;4.82;;
13795;SDS011;40911;51.552;9.874;2023-08-20T13:40:52;4.68;;;4.22;;
13795;SDS011;40911;51.552;9.874;2023-08-20T13:43:15;6.28;;;5.68;;
13795;SDS011;40911;51.552;9.874;2023-08-20T13:45:37;5.10;;;4.38;;
13795;SDS011;40911;51.552;9.874;2023-08-20T13:47:59;5.03;;;4.55;;
13795;SDS011;40911;51.552;9.874;2023-08-20T13:50:21;4.97;;;4.40;;
13795;SDS011;40911;51.552;9.874;2023-08-20T13:52:43;4.75;;;4.28;;
13795;SDS011;40911;51.552;9.874;2023-08-20T13:55:05;9.80;;;8.80;;
13795;SDS011;40911;51.552;9.874;2023-08-20T13:57:28;7.05;;;4.95;;
13795;SDS011;40911;51.552;9.874;2023-08-20T13:59:51;4.93;;;4.50;;
13795;SDS011;40911;51.552;9.874;2023-08-20T14:02:12;6.00;;;4.93;;
13795;SDS011;40911;51.552;9.874;2023-08-20T14:04:35;6.20;;;4.40;;
13795;SDS011;40911;51.552;9.874;2023-08-20T14:06:56;4.82;;;4.32;;
13795;SDS011;40911;51.552;9.874;2023-08-20T14:09:18;5.70;;;4.38;;
13795;SDS011;40911;51.552;9.874;2023-08-20T14:11:40;11.45;;;9.35;;
13795;SDS011;40911;51.552;9.874;2023-08-20T14:14:02;6.82;;;5.90;;